Time;durP1;ratioP1;P1;durP2;ratioP2;P2;SDS_P1;SDS_P2;PMS_P1;PMS_P2;Temp;Humidity;BMP_temperature;BMP_pressure;BME280_temperature;BME280_humidity;BME280_pressure;Samples;Min_cycle;Max_cycle;Signal;HPM_P1;HPM_P2
2022/07/14 00:01:24;;;;;;;1.67;0.70;;;14.30;99.90;;;;;;4998658;28;20049;-75
2022/07/14 00:03:50;;;;;;;3.40;1.00;;;14.30;99.90;;;;;;4982473;28;20137;-75
2022/07/14 00:06:16;;;;;;;3.40;0.98;;;14.20;99.90;;;;;;4982441;28;20042;-75
2022/07/14 00:08:45;;;;;;;1.05;0.55;;;14.30;99.90;;;;;;5015051;28;20099;-75
2022/07/14 00:11:11;;;;;;;2.00;0.90;;;14.20;99.90;;;;;;5015996;28;20051;-74
2022/07/14 00:13:37;;;;;;;4.25;0.77;;;14.20;99.90;;;;;;4986311;28;20114;-75
2022/07/14 00:16:03;;;;;;;0.65;0.45;;;14.20;99.90;;;;;;5002688;28;20124;-75
2022/07/14 00:18:30;;;;;;;4.80;0.75;;;14.20;99.90;;;;;;5002518;28;20041;-75
2022/07/14 00:20:55;;;;;;;1.95;0.80;;;14.20;99.90;;;;;;5019049;28;20041;-75
2022/07/14 00:23:24;;;;;;;3.15;0.70;;;14.20;99.90;;;;;;5018966;28;20057;-75
2022/07/14 00:25:50;;;;;;;1.75;0.85;;;14.10;99.90;;;;;;5019066;28;20420;-75
2022/07/14 00:28:16;;;;;;;2.83;0.90;;;14.00;99.90;;;;;;5018695;28;20033;-75
2022/07/14 00:30:42;;;;;;;4.03;1.20;;;14.00;99.90;;;;;;4986203;28;20545;-75
2022/07/14 00:33:07;;;;;;;2.80;0.80;;;14.00;99.90;;;;;;5002267;28;20041;-75
2022/07/14 00:35:33;;;;;;;7.93;1.13;;;14.00;99.90;;;;;;5018573;28;20136;-75
2022/07/14 00:37:59;;;;;;;2.67;0.85;;;13.90;99.90;;;;;;5002233;28;20037;-75
2022/07/14 00:40:25;;;;;;;2.85;1.35;;;13.90;99.90;;;;;;5002201;28;20049;-74
2022/07/14 00:42:51;;;;;;;2.60;1.25;;;13.80;99.90;;;;;;5002204;28;20405;-76
2022/07/14 00:45:20;;;;;;;1.80;0.90;;;13.80;99.90;;;;;;5018352;28;20037;-75
2022/07/14 00:47:47;;;;;;;5.13;1.15;;;14.00;99.90;;;;;;5001967;28;20044;-75
2022/07/14 00:50:15;;;;;;;1.52;0.70;;;13.80;99.90;;;;;;5018343;28;20041;-75
2022/07/14 00:52:43;;;;;;;2.13;0.98;;;13.80;99.90;;;;;;5018271;28;20103;-75
2022/07/14 00:55:10;;;;;;;5.32;1.10;;;13.80;99.90;;;;;;5001854;28;20099;-75
2022/07/14 00:57:36;;;;;;;3.08;0.82;;;13.70;99.90;;;;;;5018187;28;20044;-75
2022/07/14 01:00:04;;;;;;;1.45;0.98;;;13.70;99.90;;;;;;5018103;28;20128;-75
2022/07/14 01:02:29;;;;;;;1.27;1.00;;;13.70;99.90;;;;;;5018367;28;20075;-75
2022/07/14 01:04:55;;;;;;;3.78;1.02;;;13.60;99.90;;;;;;5001966;28;20041;-75
2022/07/14 01:07:21;;;;;;;0.85;0.68;;;13.70;99.90;;;;;;4985792;28;20042;-75
2022/07/14 01:09:47;;;;;;;4.07;0.70;;;13.60;99.90;;;;;;5017882;28;20044;-74
2022/07/14 01:12:13;;;;;;;2.60;0.68;;;13.60;99.90;;;;;;5001918;28;20519;-75
2022/07/14 01:14:39;;;;;;;1.98;0.90;;;13.60;99.90;;;;;;4985348;28;20057;-74
2022/07/14 01:17:07;;;;;;;1.42;0.88;;;13.60;99.90;;;;;;5001437;28;20049;-74
2022/07/14 01:19:33;;;;;;;3.97;1.08;;;13.50;99.90;;;;;;5017749;28;20041;-74
2022/07/14 01:21:59;;;;;;;3.47;0.88;;;13.50;99.90;;;;;;5017497;28;20052;-75
2022/07/14 01:24:27;;;;;;;4.78;1.00;;;13.50;99.90;;;;;;5017565;28;20132;-75
2022/07/14 01:26:53;;;;;;;2.10;0.75;;;13.50;99.90;;;;;;5001273;28;20154;-75
2022/07/14 01:29:19;;;;;;;4.47;1.00;;;13.50;99.90;;;;;;5001211;28;20037;-75
2022/07/14 01:31:46;;;;;;;1.85;0.77;;;13.50;99.90;;;;;;5001182;28;20128;-75
2022/07/14 01:34:12;;;;;;;3.15;1.00;;;13.40;99.90;;;;;;5001286;28;20441;-75
2022/07/14 01:36:38;;;;;;;2.72;1.20;;;13.40;99.90;;;;;;5001367;28;20128;-75
2022/07/14 01:39:05;;;;;;;1.33;0.80;;;13.40;99.90;;;;;;5017420;28;20102;-75
2022/07/14 01:41:31;;;;;;;1.13;0.70;;;13.50;99.90;;;;;;5017393;28;20045;-75
2022/07/14 01:43:57;;;;;;;1.75;0.80;;;13.30;99.90;;;;;;5017346;28;20096;-75
2022/07/14 01:46:23;;;;;;;6.07;0.90;;;13.40;99.90;;;;;;5000936;28;20034;-74
2022/07/14 01:48:48;;;;;;;1.23;0.85;;;13.30;99.90;;;;;;5001060;28;20038;-74
2022/07/14 01:51:14;;;;;;;4.78;1.00;;;13.30;99.90;;;;;;5017131;28;20511;-75
2022/07/14 01:53:41;;;;;;;2.42;0.73;;;13.20;99.90;;;;;;4984714;28;20052;-74
2022/07/14 01:56:08;;;;;;;2.83;1.25;;;13.40;99.90;;;;;;5000697;28;20047;-75
2022/07/14 01:58:34;;;;;;;7.07;1.23;;;13.20;99.90;;;;;;5001034;28;20564;-74
2022/07/14 02:03:45;;;;;;;1.42;0.95;;;13.20;99.90;;;;;;5003178;28;20056;-75
2022/07/14 02:06:11;;;;;;;1.85;0.65;;;13.20;99.90;;;;;;5001039;28;20049;-74
2022/07/14 02:08:37;;;;;;;0.82;0.70;;;13.10;99.90;;;;;;5017114;28;20041;-75
2022/07/14 02:13:47;;;;;;;4.78;1.00;;;13.20;99.90;;;;;;5016576;28;20049;-75
2022/07/14 02:16:12;;;;;;;2.97;1.08;;;13.10;99.90;;;;;;5000494;28;20049;-75
2022/07/14 02:18:38;;;;;;;1.65;0.85;;;13.20;99.90;;;;;;5000412;28;20052;-75
2022/07/14 02:21:04;;;;;;;1.08;0.82;;;13.20;99.90;;;;;;5016979;28;20053;-75
2022/07/14 02:23:30;;;;;;;4.25;1.35;;;13.20;99.90;;;;;;5016731;28;20048;-75
2022/07/14 02:25:55;;;;;;;2.65;0.95;;;13.20;99.90;;;;;;5000214;28;20124;-75
2022/07/14 02:28:21;;;;;;;1.20;0.52;;;13.20;99.90;;;;;;5000477;28;20400;-75
2022/07/14 02:30:47;;;;;;;1.88;0.90;;;13.20;99.90;;;;;;5000142;28;20042;-74
2022/07/14 02:33:12;;;;;;;1.80;0.80;;;13.10;99.90;;;;;;5016354;28;20055;-75
2022/07/14 02:35:38;;;;;;;2.15;0.98;;;13.00;99.90;;;;;;5015806;28;20077;-75
2022/07/14 02:38:04;;;;;;;2.00;0.93;;;13.00;99.90;;;;;;5016292;28;20045;-74
2022/07/14 02:40:30;;;;;;;4.15;0.80;;;13.20;99.90;;;;;;4999901;28;20045;-75
2022/07/14 02:42:56;;;;;;;1.73;0.88;;;13.00;99.90;;;;;;5000171;28;20408;-75
2022/07/14 02:45:21;;;;;;;2.60;1.13;;;13.00;99.90;;;;;;5016154;28;20037;-75
2022/07/14 02:47:47;;;;;;;5.00;0.80;;;13.40;99.90;;;;;;5000080;28;20041;-75
2022/07/14 02:50:13;;;;;;;3.15;1.02;;;12.90;99.90;;;;;;5016041;28;20033;-75
2022/07/14 02:52:39;;;;;;;2.63;0.88;;;12.90;99.90;;;;;;5016052;28;20041;-75
2022/07/14 02:55:06;;;;;;;3.13;1.00;;;12.90;99.90;;;;;;5016063;28;20038;-74
2022/07/14 02:57:31;;;;;;;3.38;1.30;;;12.90;99.90;;;;;;5015988;28;20077;-75
2022/07/14 02:59:58;;;;;;;5.97;1.00;;;12.90;99.90;;;;;;4983537;28;20073;-75
2022/07/14 03:02:25;;;;;;;4.35;0.93;;;12.80;99.90;;;;;;5016114;28;20049;-75
2022/07/14 03:04:50;;;;;;;2.42;0.90;;;12.80;99.90;;;;;;5015809;28;20041;-75
2022/07/14 03:07:16;;;;;;;2.05;0.88;;;12.80;99.90;;;;;;5015910;28;20055;-74
2022/07/14 03:09:42;;;;;;;2.65;1.00;;;12.80;99.90;;;;;;5015965;28;20128;-75
2022/07/14 03:12:08;;;;;;;2.38;0.68;;;12.80;99.90;;;;;;5015887;28;20044;-75
2022/07/14 03:14:33;;;;;;;2.38;0.93;;;12.70;99.90;;;;;;4999318;28;20295;-74
2022/07/14 03:16:59;;;;;;;1.23;0.90;;;12.70;99.90;;;;;;5015698;28;20420;-75
2022/07/14 03:19:25;;;;;;;2.20;0.75;;;12.70;99.90;;;;;;4999251;28;20530;-75
2022/07/14 03:21:51;;;;;;;1.08;0.85;;;12.70;99.90;;;;;;4999568;28;20052;-75
2022/07/14 03:24:17;;;;;;;0.93;0.70;;;12.70;99.90;;;;;;5015460;28;20126;-75
2022/07/14 03:26:43;;;;;;;0.88;0.70;;;12.60;99.90;;;;;;4999196;28;20045;-75
2022/07/14 03:29:09;;;;;;;1.67;0.80;;;12.80;99.90;;;;;;5015420;28;20041;-75
2022/07/14 03:31:34;;;;;;;4.57;1.00;;;12.80;99.90;;;;;;5015546;28;20057;-75
2022/07/14 03:34:00;;;;;;;3.90;1.25;;;13.80;99.90;;;;;;5015383;28;20041;-75
2022/07/14 03:36:26;;;;;;;1.13;0.70;;;12.80;99.90;;;;;;5015280;28;20115;-75
2022/07/14 03:38:51;;;;;;;0.95;0.85;;;12.80;99.90;;;;;;4999589;28;20037;-75
2022/07/14 03:41:17;;;;;;;8.00;1.05;;;13.10;99.90;;;;;;5015571;28;20045;-74
2022/07/14 03:43:43;;;;;;;5.07;1.20;;;13.30;99.90;;;;;;5015311;28;20137;-74
2022/07/14 03:46:09;;;;;;;4.80;1.40;;;12.90;99.90;;;;;;4983147;28;20057;-75
2022/07/14 03:48:35;;;;;;;1.55;1.17;;;13.00;99.90;;;;;;4998903;28;20399;-75
2022/07/14 03:51:01;;;;;;;5.43;0.82;;;13.20;99.90;;;;;;5015267;28;20389;-75
2022/07/14 03:53:29;;;;;;;4.57;0.82;;;13.00;99.90;;;;;;5015337;28;20481;-75
2022/07/14 03:55:55;;;;;;;2.38;1.10;;;13.00;99.90;;;;;;4998821;28;20045;-75
2022/07/14 03:58:21;;;;;;;4.25;1.20;;;13.00;99.90;;;;;;4966612;28;20041;-75
2022/07/14 04:00:47;;;;;;;2.20;0.90;;;12.90;99.90;;;;;;4999075;28;20050;-74
2022/07/14 04:03:12;;;;;;;3.17;0.90;;;13.00;99.90;;;;;;4982516;28;20129;-75
2022/07/14 04:05:38;;;;;;;4.10;1.17;;;13.00;99.90;;;;;;4998929;28;20128;-75
2022/07/14 04:08:04;;;;;;;1.70;0.80;;;13.00;99.90;;;;;;5015072;28;20048;-74
2022/07/14 04:10:29;;;;;;;3.35;1.15;;;13.10;99.90;;;;;;5015114;28;20044;-75
2022/07/14 04:12:56;;;;;;;0.93;0.80;;;13.10;99.90;;;;;;5015052;28;20049;-75
2022/07/14 04:15:23;;;;;;;1.38;1.10;;;13.10;99.90;;;;;;4998756;28;20045;-74
2022/07/14 04:17:49;;;;;;;1.90;0.93;;;13.10;99.90;;;;;;4982670;28;20417;-74
2022/07/14 04:20:16;;;;;;;1.50;0.88;;;13.10;99.90;;;;;;4999071;28;20069;-75
2022/07/14 04:22:42;;;;;;;2.55;0.90;;;13.20;99.90;;;;;;5014856;28;20076;-75
2022/07/14 04:25:12;;;;;;;1.38;0.88;;;13.10;99.90;;;;;;4998805;28;20037;-75
2022/07/14 04:27:39;;;;;;;1.13;0.98;;;13.20;99.90;;;;;;5014917;28;20045;-74
2022/07/14 04:30:05;;;;;;;2.67;1.23;;;13.20;99.90;;;;;;5014855;28;20067;-75
2022/07/14 04:32:31;;;;;;;1.70;0.80;;;13.20;99.90;;;;;;4982535;28;20045;-75
2022/07/14 04:34:57;;;;;;;2.85;1.02;;;13.20;99.90;;;;;;5014993;28;20064;-74
2022/07/14 04:37:22;;;;;;;2.22;1.00;;;13.40;99.90;;;;;;4998334;28;20042;-75
2022/07/14 04:39:48;;;;;;;2.95;1.13;;;13.20;99.90;;;;;;4998478;28;20404;-74
2022/07/14 04:42:14;;;;;;;3.10;1.17;;;13.20;99.90;;;;;;4998697;28;20123;-74
2022/07/14 04:44:41;;;;;;;1.67;0.80;;;13.30;99.90;;;;;;5014649;28;20048;-75
2022/07/14 04:47:07;;;;;;;2.33;0.88;;;13.20;99.90;;;;;;4998593;28;20033;-75
2022/07/14 04:52:17;;;;;;;1.98;1.30;;;13.30;99.90;;;;;;5000730;28;20068;-74
2022/07/14 04:54:45;;;;;;;2.00;0.80;;;13.30;99.90;;;;;;4982178;28;20045;-75
2022/07/14 04:57:11;;;;;;;2.42;0.90;;;13.30;99.90;;;;;;5015437;28;20045;-75
2022/07/14 04:59:37;;;;;;;1.38;1.10;;;13.30;99.90;;;;;;5018397;28;20457;-74
2022/07/14 05:02:04;;;;;;;2.05;1.23;;;13.40;99.90;;;;;;4985572;28;20049;-75
2022/07/14 05:04:30;;;;;;;2.03;1.15;;;13.40;99.90;;;;;;5017972;28;20045;-75
2022/07/14 05:06:57;;;;;;;2.15;1.20;;;13.50;99.90;;;;;;5018267;28;20034;-75
2022/07/14 05:09:25;;;;;;;2.60;0.98;;;13.50;99.90;;;;;;5018202;28;20401;-75
2022/07/14 05:11:54;;;;;;;3.45;1.02;;;13.60;99.90;;;;;;5019071;28;20045;-74
2022/07/14 05:14:20;;;;;;;2.25;1.08;;;13.60;99.90;;;;;;5017780;28;20062;-74
2022/07/14 05:16:48;;;;;;;2.67;1.08;;;13.70;99.90;;;;;;5001417;28;20601;-75
2022/07/14 05:19:17;;;;;;;3.30;1.00;;;13.80;99.90;;;;;;5018507;28;20053;-75
2022/07/14 05:21:44;;;;;;;1.98;1.10;;;13.90;99.90;;;;;;5017775;28;20095;-75
2022/07/14 05:24:10;;;;;;;4.22;1.30;;;14.00;99.90;;;;;;5017567;28;20049;-74
2022/07/14 05:26:35;;;;;;;1.08;0.70;;;14.10;99.90;;;;;;5001395;28;20042;-75
2022/07/14 05:29:02;;;;;;;1.35;0.80;;;14.20;99.90;;;;;;5017656;28;20485;-75
2022/07/14 05:31:28;;;;;;;1.83;0.93;;;14.50;99.90;;;;;;5001485;28;20477;-75
2022/07/14 05:33:55;;;;;;;3.97;1.58;;;14.30;99.90;;;;;;5017561;28;20049;-75
2022/07/14 05:36:22;;;;;;;2.40;1.05;;;14.50;99.90;;;;;;4985324;28;20037;-76
2022/07/14 05:38:48;;;;;;;1.65;0.88;;;14.60;99.90;;;;;;5017678;28;20492;-74
2022/07/14 05:41:14;;;;;;;1.98;0.88;;;15.00;99.90;;;;;;5017417;28;20184;-72
2022/07/14 05:43:41;;;;;;;2.00;0.85;;;15.00;99.90;;;;;;5017344;28;20045;-72
2022/07/14 05:46:08;;;;;;;1.67;0.73;;;14.90;99.90;;;;;;5017541;28;20069;-73
2022/07/14 05:48:35;;;;;;;1.17;0.73;;;15.10;99.90;;;;;;5001909;28;20042;-74
2022/07/14 05:51:10;;;;;;;1.52;0.88;;;15.20;99.90;;;;;;5001563;28;20076;-74
2022/07/14 05:53:35;;;;;;;2.58;0.60;;;15.50;99.90;;;;;;4985907;28;20083;-72
2022/07/14 05:56:03;;;;;;;4.18;0.70;;;15.40;99.90;;;;;;5017382;28;20084;-72
2022/07/14 05:58:29;;;;;;;1.10;0.80;;;;;;;;;;5018629;28;20397;-73
2022/07/14 06:00:55;;;;;;;0.98;0.80;;;15.60;99.90;;;;;;5017725;28;20045;-72
2022/07/14 06:03:20;;;;;;;0.60;0.50;;;15.60;99.90;;;;;;5017174;28;20056;-73
2022/07/14 06:05:46;;;;;;;1.35;0.73;;;15.70;99.90;;;;;;5017046;28;20059;-75
2022/07/14 06:08:12;;;;;;;1.85;0.70;;;15.80;99.90;;;;;;5017339;28;20041;-82
2022/07/14 06:10:38;;;;;;;0.98;0.70;;;15.80;99.90;;;;;;5000243;28;20080;-74
2022/07/14 06:13:04;;;;;;;0.50;0.43;;;16.00;99.90;;;;;;5017006;28;20077;-75
2022/07/14 06:15:30;;;;;;;4.72;0.70;;;16.00;99.90;;;;;;4984676;28;20134;-73
2022/07/14 06:17:56;;;;;;;0.88;0.63;;;16.10;99.90;;;;;;5016860;28;20049;-80
2022/07/14 06:20:22;;;;;;;1.10;0.77;;;16.20;99.90;;;;;;5016807;28;20103;-76
2022/07/14 06:22:49;;;;;;;1.80;0.98;;;16.30;99.90;;;;;;5000111;28;20048;-76
2022/07/14 06:25:15;;;;;;;1.13;0.60;;;16.40;99.90;;;;;;5016700;28;20077;-76
2022/07/14 06:27:41;;;;;;;4.60;0.55;;;16.40;99.90;;;;;;5000428;28;20038;-76
2022/07/14 06:30:08;;;;;;;1.50;0.70;;;16.50;99.90;;;;;;5016450;28;20033;-76
2022/07/14 06:32:36;;;;;;;1.27;0.50;;;16.60;99.90;;;;;;5000327;28;20052;-76
2022/07/14 06:35:02;;;;;;;0.63;0.38;;;16.60;99.90;;;;;;5000209;28;20455;-75
2022/07/14 06:37:28;;;;;;;1.73;0.60;;;;;;;;;;4999799;28;20045;-76
2022/07/14 06:39:54;;;;;;;1.23;0.65;;;;;;;;;;5016241;28;20077;-76
2022/07/14 06:42:20;;;;;;;2.20;0.50;;;;;;;;;;5000174;28;20087;-76
2022/07/14 06:44:46;;;;;;;1.83;0.80;;;;;;;;;;4999832;28;20044;-75
2022/07/14 06:47:12;;;;;;;0.50;0.30;;;;;;;;;;5000064;28;20045;-75
2022/07/14 06:49:38;;;;;;;1.67;0.43;;;;;;;;;;5000092;28;20547;-76
2022/07/14 06:52:05;;;;;;;1.52;0.40;;;;;;;;;;5016457;28;20041;-80
2022/07/14 06:54:31;;;;;;;0.60;0.30;;;;;;;;;;4999944;28;20485;-76
2022/07/14 06:56:57;;;;;;;2.95;0.65;;;;;;;;;;5015971;28;20041;-76
2022/07/14 06:59:23;;;;;;;1.50;0.60;;;;;;;;;;5016018;28;20390;-76
2022/07/14 07:01:49;;;;;;;3.00;0.50;;;;;;;;;;4999598;28;20053;-76
2022/07/14 07:04:15;;;;;;;0.57;0.50;;;;;;;;;;5015768;28;20137;-76
2022/07/14 07:06:44;;;;;;;0.85;0.60;;;;;;;;;;4983588;28;20088;-76
2022/07/14 07:09:14;;;;;;;1.17;0.65;;;;;;;;;;5015781;28;20133;-76
2022/07/14 07:11:41;;;;;;;5.93;0.70;;;;;;;;;;4999283;28;20033;-76
2022/07/14 07:14:07;;;;;;;1.70;0.57;;;;;;;;;;5015521;28;20072;-76
2022/07/14 07:16:33;;;;;;;1.38;0.35;;;;;;;;;;5015556;28;20052;-76
2022/07/14 07:18:59;;;;;;;4.60;0.50;;;;;;;;;;4984004;28;20087;-76
2022/07/14 07:21:25;;;;;;;1.83;0.50;;;;;;;;;;5015375;28;20052;-76
2022/07/14 07:23:54;;;;;;;0.73;0.50;;;;;;;;;;4999262;28;20413;-76
2022/07/14 07:26:22;;;;;;;0.50;0.40;;;;;;;;;;5015762;28;20042;-76
2022/07/14 07:28:49;;;;;;;0.30;0.30;;;;;;;;;;5015572;28;20045;-76
2022/07/14 07:31:15;;;;;;;0.32;0.32;;;;;;;;;;5015707;28;20503;-76
2022/07/14 07:33:41;;;;;;;3.50;0.40;;;;;;;;;;5015414;28;20128;-76
2022/07/14 07:36:07;;;;;;;1.20;0.40;;;;;;;;;;5015510;28;20509;-76
2022/07/14 07:38:33;;;;;;;1.95;0.60;;;;;;;;;;5015662;28;20481;-76
2022/07/14 07:41:02;;;;;;;4.80;0.85;;;;;;;;;;4999023;28;20038;-76
2022/07/14 07:43:28;;;;;;;3.63;0.50;;;;;;;;;;4999295;28;20447;-76
2022/07/14 07:45:54;;;;;;;0.73;0.50;;;;;;;;;;4999254;28;20436;-76
2022/07/14 07:48:21;;;;;;;0.43;0.43;;;;;;;;;;4999203;28;20033;-76
2022/07/14 07:50:48;;;;;;;0.75;0.40;;;;;;;;;;5015123;28;20081;-75
2022/07/14 07:53:14;;;;;;;1.35;0.60;;;;;;;;;;4998840;28;20128;-76
2022/07/14 07:55:41;;;;;;;0.85;0.45;;;;;;;;;;4998861;28;20045;-76
2022/07/14 07:58:07;;;;;;;0.40;0.30;;;;;;;;;;5015280;28;20048;-76
2022/07/14 08:00:33;;;;;;;1.98;0.43;;;;;;;;;;5014973;28;20049;-76
2022/07/14 08:03:01;;;;;;;0.38;0.30;;;18.50;99.90;;;;;;4998557;28;20128;-76
2022/07/14 08:05:29;;;;;;;1.35;0.50;;;18.70;99.90;;;;;;5015046;28;20038;-76
2022/07/14 08:07:55;;;;;;;0.25;0.25;;;18.90;99.90;;;;;;5014869;28;20048;-76
2022/07/14 08:10:22;;;;;;;2.40;0.38;;;18.90;99.90;;;;;;4998871;28;20033;-76
2022/07/14 08:12:47;;;;;;;0.63;0.40;;;18.90;99.90;;;;;;5014943;28;20049;-76
2022/07/14 08:15:17;;;;;;;1.77;0.50;;;19.10;99.90;;;;;;4998425;28;20509;-76
2022/07/14 08:17:43;;;;;;;2.35;0.60;;;19.10;99.90;;;;;;5015156;28;20037;-76
2022/07/14 08:20:09;;;;;;;0.60;0.30;;;19.20;99.90;;;;;;5014982;28;20052;-76
2022/07/14 08:22:36;;;;;;;0.77;0.40;;;19.30;99.90;;;;;;4999053;28;20493;-76
2022/07/14 08:25:04;;;;;;;0.57;0.30;;;19.50;99.90;;;;;;4998637;28;20084;-77
2022/07/14 08:27:30;;;;;;;0.30;0.30;;;19.60;99.90;;;;;;5014765;28;20071;-77
2022/07/14 08:29:56;;;;;;;0.40;0.30;;;19.60;99.90;;;;;;5014942;28;20136;-76
2022/07/14 08:32:36;;;;;;;0.63;0.40;;;19.80;99.90;;;;;;5015565;28;20116;-76
2022/07/14 08:35:04;;;;;;;1.70;0.52;;;19.90;99.90;;;;;;5018782;28;20095;-77
2022/07/14 08:37:30;;;;;;;0.85;0.30;;;19.70;99.90;;;;;;5018548;28;20083;-76
2022/07/14 08:39:56;;;;;;;0.70;0.30;;;19.50;99.90;;;;;;5002176;28;20052;-76
2022/07/14 08:42:22;;;;;;;2.60;0.30;;;19.50;99.90;;;;;;4986068;28;20397;-75
2022/07/14 08:44:48;;;;;;;0.45;0.30;;;19.30;99.90;;;;;;5018220;28;20079;-76
2022/07/14 08:47:15;;;;;;;0.52;0.28;;;19.40;99.90;;;;;;5002026;28;20042;-76
2022/07/14 08:49:42;;;;;;;0.15;0.15;;;19.60;99.90;;;;;;5018319;28;20127;-76
2022/07/14 08:52:07;;;;;;;0.77;0.50;;;19.70;99.90;;;;;;5018376;28;20045;-76
2022/07/14 08:54:35;;;;;;;1.17;0.50;;;19.70;99.90;;;;;;5001977;28;20041;-76
2022/07/14 08:57:02;;;;;;;2.05;0.40;;;19.80;99.90;;;;;;5002974;28;20489;-76
2022/07/14 08:59:28;;;;;;;0.20;0.20;;;19.90;99.90;;;;;;5002122;28;20045;-77
2022/07/14 09:01:56;;;;;;;0.38;0.30;;;19.90;99.90;;;;;;5018207;28;20084;-76
2022/07/14 09:04:21;;;;;;;1.58;0.40;;;19.80;99.90;;;;;;5001850;28;20037;-76
2022/07/14 09:06:52;;;;;;;1.17;0.47;;;19.80;99.90;;;;;;5001735;28;20111;-76
2022/07/14 09:09:23;;;;;;;0.32;0.30;;;20.00;99.90;;;;;;5001656;28;20073;-77
2022/07/14 09:11:54;;;;;;;1.10;0.32;;;20.10;99.90;;;;;;5018317;28;20037;-77
2022/07/14 09:14:20;;;;;;;0.25;0.25;;;20.20;99.90;;;;;;5017973;28;20479;-77
2022/07/14 09:16:46;;;;;;;0.22;0.22;;;20.40;99.90;;;;;;5017862;28;20132;-75
2022/07/14 09:19:14;;;;;;;1.05;0.30;;;20.30;99.90;;;;;;5001943;28;20497;-76
2022/07/14 09:21:45;;;;;;;0.40;0.28;;;20.50;99.90;;;;;;5002051;28;20396;-74
2022/07/14 09:24:14;;;;;;;0.98;0.30;;;20.40;99.90;;;;;;5001574;28;20048;-76
2022/07/14 09:26:48;;;;;;;0.40;0.20;;;20.40;99.90;;;;;;5018004;28;20511;-77
2022/07/14 09:29:29;;;;;;;0.95;0.47;;;20.40;99.90;;;;;;5017924;28;20041;-77
2022/07/14 09:31:54;;;;;;;;;;;20.40;99.90;;;;;;5018021;28;20124;-76
2022/07/14 09:34:31;;;;;;;0.57;0.30;;;20.20;99.90;;;;;;5017459;28;20007;-76
2022/07/14 09:37:15;;;;;;;0.57;0.32;;;20.00;99.90;;;;;;5001488;28;20045;-77
2022/07/14 09:39:59;;;;;;;3.85;0.47;;;19.90;99.90;;;;;;5017819;28;20037;-77
2022/07/14 09:42:46;;;;;;;0.80;0.40;;;19.90;99.90;;;;;;5017807;28;20069;-77
2022/07/14 09:45:14;;;;;;;0.85;0.52;;;19.90;99.90;;;;;;5017197;28;20346;-76
2022/07/14 09:47:56;;;;;;;0.30;0.20;;;19.90;99.90;;;;;;4985533;28;20056;-86
2022/07/14 09:50:55;;;;;;;1.00;0.40;;;20.10;99.90;;;;;;5000931;28;20069;-77
2022/07/14 09:53:26;;;;;;;0.68;0.38;;;20.30;99.90;;;;;;5017463;28;20037;-76
2022/07/14 09:56:03;;;;;;;0.70;0.38;;;20.50;99.90;;;;;;5017253;28;20041;-77
2022/07/14 09:58:40;;;;;;;0.68;0.35;;;20.60;99.90;;;;;;5001051;28;20099;-77
2022/07/14 10:01:14;;;;;;;0.88;0.50;;;20.70;99.90;;;;;;5017048;28;20037;-74
2022/07/14 10:03:41;;;;;;;0.60;0.50;;;20.70;99.90;;;;;;5000589;28;20070;-72
2022/07/14 10:06:07;;;;;;;1.80;0.28;;;20.70;99.90;;;;;;5000803;28;20037;-69
2022/07/14 10:08:41;;;;;;;2.63;0.38;;;20.70;99.90;;;;;;5034677;28;20041;-75
2022/07/14 10:11:07;;;;;;;0.20;0.10;;;20.30;99.90;;;;;;5000792;28;20044;-74
2022/07/14 10:13:33;;;;;;;0.22;0.20;;;20.60;99.90;;;;;;5000597;28;20493;-75
2022/07/14 10:15:59;;;;;;;1.23;0.30;;;20.80;99.90;;;;;;4984419;28;20083;-75
2022/07/14 10:18:27;;;;;;;0.32;0.30;;;20.70;99.90;;;;;;4984398;28;20045;-75
2022/07/14 10:20:56;;;;;;;1.63;0.30;;;21.00;99.90;;;;;;5000648;28;20131;-75
2022/07/14 10:23:23;;;;;;;1.65;0.30;;;20.90;99.90;;;;;;5000521;28;20095;-74
2022/07/14 10:25:51;;;;;;;0.35;0.25;;;20.80;99.90;;;;;;5000664;28;20045;-75
2022/07/14 10:28:19;;;;;;;0.68;0.30;;;20.70;99.90;;;;;;5016579;28;20091;-75
2022/07/14 10:31:22;;;;;;;0.75;0.30;;;20.60;99.90;;;;;;5034324;28;20033;-75
2022/07/14 10:33:56;;;;;;;0.52;0.40;;;20.50;99.90;;;;;;5016394;28;20048;-75
2022/07/14 10:36:30;;;;;;;1.08;0.30;;;20.50;99.90;;;;;;5016414;28;20120;-75
2022/07/14 10:39:25;;;;;;;0.40;0.32;;;20.50;99.90;;;;;;5002908;28;20038;-74
2022/07/14 10:42:15;;;;;;;2.30;0.35;;;20.60;99.90;;;;;;5000110;28;20045;-74
2022/07/14 10:44:45;;;;;;;0.90;0.40;;;20.90;99.90;;;;;;5016235;28;20049;-74
2022/07/14 10:47:16;;;;;;;0.52;0.40;;;20.80;99.90;;;;;;5016436;28;20040;-74
2022/07/14 10:50:13;;;;;;;0.22;0.20;;;20.90;99.90;;;;;;5016224;28;20123;-74
2022/07/14 10:53:05;;;;;;;0.60;0.40;;;20.70;99.90;;;;;;4999802;28;20195;-74
2022/07/14 10:55:31;;;;;;;0.85;0.30;;;21.00;99.90;;;;;;5015556;28;20041;-73
2022/07/14 10:57:59;;;;;;;0.40;0.38;;;21.00;99.90;;;;;;5016658;28;20041;-74
2022/07/14 11:00:41;;;;;;;0.28;0.28;;;20.90;99.90;;;;;;5015920;28;20087;-74
2022/07/14 11:03:24;;;;;;;0.20;0.20;;;21.00;99.90;;;;;;5016006;28;20401;-74
2022/07/14 11:06:09;;;;;;;0.40;0.30;;;20.90;99.90;;;;;;5016201;28;20104;-74
2022/07/14 11:08:43;;;;;;;0.20;0.20;;;20.90;99.90;;;;;;5016129;28;20052;-74
2022/07/14 11:11:17;;;;;;;0.68;0.30;;;20.70;99.90;;;;;;5016017;28;20413;-74
2022/07/14 11:14:01;;;;;;;0.43;0.40;;;20.70;99.90;;;;;;5015577;28;20099;-74
2022/07/14 11:16:45;;;;;;;0.65;0.40;;;20.80;99.90;;;;;;4999503;28;20049;-74
2022/07/14 11:19:21;;;;;;;0.22;0.22;;;20.80;99.90;;;;;;5015692;28;20124;-74
2022/07/14 11:22:19;;;;;;;0.35;0.35;;;20.80;99.90;;;;;;4999511;28;20123;-74
2022/07/14 11:24:54;;;;;;;1.08;0.30;;;20.70;99.90;;;;;;5015560;28;20049;-74
2022/07/14 11:27:35;;;;;;;0.13;0.10;;;20.70;99.90;;;;;;4999168;28;20040;-74
2022/07/14 11:30:30;;;;;;;0.30;0.20;;;20.60;99.90;;;;;;5015671;28;20100;-81
2022/07/14 11:33:02;;;;;;;0.63;0.25;;;20.70;99.90;;;;;;5015512;28;20119;-74
2022/07/14 11:38:39;;;;;;;0.30;0.28;;;20.70;99.90;;;;;;5015353;28;20052;-74
2022/07/14 11:41:12;;;;;;;1.02;0.22;;;20.70;99.90;;;;;;5015320;28;20043;-74
2022/07/14 11:43:47;;;;;;;0.30;0.30;;;20.60;99.90;;;;;;4998854;28;20045;-74
2022/07/14 11:46:18;;;;;;;1.45;0.40;;;20.50;99.90;;;;;;5015283;28;20045;-74
2022/07/14 11:48:46;;;;;;;0.10;0.10;;;;;;;;;;5015241;28;20042;-74
2022/07/14 11:51:19;;;;;;;1.33;0.30;;;20.30;99.90;;;;;;5015247;28;20053;-74
2022/07/14 11:53:45;;;;;;;0.63;0.40;;;20.30;99.90;;;;;;4998733;28;20041;-74
2022/07/14 11:56:12;;;;;;;0.85;0.63;;;20.40;99.90;;;;;;5015197;28;20052;-73
2022/07/14 11:58:39;;;;;;;0.73;0.63;;;20.30;99.90;;;;;;4998824;28;20107;-73
2022/07/14 12:01:07;;;;;;;0.73;0.40;;;20.30;99.90;;;;;;5015486;28;20045;-72
2022/07/14 12:03:34;;;;;;;1.27;0.40;;;20.30;99.90;;;;;;5015281;28;20485;-74
2022/07/14 12:06:01;;;;;;;0.32;0.32;;;20.50;99.90;;;;;;5015115;28;20076;-74
2022/07/14 12:08:37;;;;;;;0.30;0.30;;;20.70;99.90;;;;;;5017809;28;20045;-74
2022/07/14 12:11:11;;;;;;;1.10;0.43;;;20.70;99.90;;;;;;5002727;28;20041;-74
2022/07/14 12:13:53;;;;;;;0.40;0.40;;;20.80;99.90;;;;;;5002509;28;20051;-75
2022/07/14 12:16:21;;;;;;;0.20;0.20;;;21.20;99.90;;;;;;5003316;28;20401;-75
2022/07/14 12:18:47;;;;;;;0.25;0.25;;;21.40;99.90;;;;;;5002903;28;20049;-76
2022/07/14 12:21:14;;;;;;;0.20;0.20;;;;;;;;;;5002703;28;20049;-81
2022/07/14 12:23:54;;;;;;;0.43;0.35;;;;;;;;;;5002598;28;20045;-82
2022/07/14 12:26:20;;;;;;;2.53;0.55;;;;;;;;;;5018983;28;20050;-82
2022/07/14 12:28:50;;;;;;;2.97;0.30;;;;;;;;;;4986387;28;20044;-81
2022/07/14 12:31:17;;;;;;;0.20;0.20;;;;;;;;;;5002481;28;20084;-82
2022/07/14 12:33:44;;;;;;;0.35;0.30;;;;;;;;;;5002759;28;20037;-81
2022/07/14 12:36:12;;;;;;;0.90;0.50;;;21.10;99.90;;;;;;5018952;28;20041;-81
2022/07/14 12:38:39;;;;;;;0.20;0.10;;;20.80;99.90;;;;;;5002590;28;20397;-82
2022/07/14 12:41:06;;;;;;;0.80;0.50;;;;;;;;;;5018653;28;20037;-82
2022/07/14 12:43:34;;;;;;;0.93;0.30;;;;;;;;;;5018769;28;20127;-82
2022/07/14 12:46:02;;;;;;;0.30;0.20;;;;;;;;;;5018525;28;20038;-81
2022/07/14 12:48:33;;;;;;;0.45;0.30;;;;;;;;;;5018697;28;20150;-82
2022/07/14 12:51:20;;;;;;;0.85;0.32;;;;;;;;;;5002091;28;20033;-81
2022/07/14 12:54:01;;;;;;;2.40;0.40;;;;;;;;;;5018351;28;20084;-81
2022/07/14 12:56:29;;;;;;;0.20;0.20;;;;;;;;;;5018662;28;20084;-83
2022/07/14 12:58:57;;;;;;;0.82;0.40;;;;;;;;;;5018360;28;20050;-82
2022/07/14 13:01:25;;;;;;;0.47;0.43;;;;;;;;;;5001861;28;20045;-82
2022/07/14 13:03:54;;;;;;;0.52;0.40;;;;;;;;;;5002220;28;20511;-82
2022/07/14 13:06:21;;;;;;;1.23;0.38;;;;;;;;;;5002116;28;20187;-82
2022/07/14 13:08:47;;;;;;;0.93;0.30;;;;;;;;;;4986617;28;20045;-82
2022/07/14 13:11:13;;;;;;;0.35;0.30;;;;;;;;;;5018125;28;20047;-82
2022/07/14 13:13:40;;;;;;;0.47;0.30;;;;;;;;;;5001478;28;20121;-82
2022/07/14 13:16:26;;;;;;;0.73;0.32;;;;;;;;;;5017944;28;20053;-82
2022/07/14 13:19:05;;;;;;;0.30;0.30;;;;;;;;;;5001140;28;20052;-82
2022/07/14 13:21:46;;;;;;;0.47;0.30;;;;;;;;;;5018148;28;20037;-81
2022/07/14 13:24:22;;;;;;;1.75;0.50;;;19.90;99.90;;;;;;5018075;28;20041;-82
2022/07/14 13:27:18;;;;;;;0.63;0.45;;;19.90;99.90;;;;;;5001530;28;20037;-82